• Join FlightAware (Why Join?)
  • Login
  • US Flag 
03:18AM EST


 

Airport Tracker/Info


-or-


 

Live Flight TrackerFlight Track Log ✈ N738HV ✈ 24-Apr-2013 ✈ KSRQ - 7FL6

Flight Track Log - Related Links

Times and Time Zones

All times are in EDT time to prevent confusion due to time zone crossing. See the N738HV flight status page for this flight to view local times or setup timezone preferences in your user account.

Time Position Orientation Groundspeed Altitude Reporting Facility
EDT Latitude Longitude Course Direction KTS MPH feet Rate Location/Type
10:24PM 27.4000 -82.5667 360° North 73 84 400  Level Tampa TRACON
10:25PM 27.4167 -82.5667 360° North 71 82 1,000 600 Climbing Tampa TRACON
10:26PM 27.4333 -82.5667 360° North 70 81 1,500 420 Climbing Tampa TRACON
10:26PM 27.4500 -82.5833 318° Northwest 79 91 1,900 420 Climbing Tampa TRACON
10:27PM 27.4833 -82.5667 24° Northeast 86 99 2,300 360 Climbing Tampa TRACON
10:28PM 27.4833 -82.5500 90° East 71 82 2,700 360 Climbing Tampa TRACON
10:29PM 27.5000 -82.5333 42° Northeast 71 82 3,100 420 Climbing Tampa TRACON
10:30PM 27.5333 -82.5167 24° Northeast 81 93 3,600 420 Climbing Tampa TRACON
10:32PM 27.5500 -82.5000 42° Northeast 85 98 4,000 360 Climbing Tampa TRACON
10:33PM 27.5667 -82.5000 360° North 88 101 4,400 360 Climbing Tampa TRACON
10:34PM 27.5833 -82.4833 42° Northeast 89 102 4,800 240 Climbing Tampa TRACON
10:35PM 27.6167 -82.4667 24° Northeast 94 108 5,000 120 Climbing Tampa TRACON
10:36PM 27.6333 -82.4333 61° Northeast 100 115 5,100  Climbing Tampa TRACON
10:37PM 27.6500 -82.4167 42° Northeast 96 110 5,000  Descending Tampa TRACON
10:38PM 27.6833 -82.4000 24° Northeast 96 110 5,100  Climbing Tampa TRACON
10:38PM 27.7000 -82.3833 42° Northeast 98 113 5,000 -120 Descending Tampa TRACON
10:39PM 27.7167 -82.3667 42° Northeast 101 116 4,900 -60 Descending Tampa TRACON
10:40PM 27.7500 -82.3500 24° Northeast 99 114 4,900  Level Tampa TRACON
10:41PM 27.7667 -82.3333 42° Northeast 98 113 4,900  Level Tampa TRACON
10:42PM 27.7833 -82.3167 41° Northeast 98 113 4,900  Level Tampa TRACON
10:43PM 27.8167 -82.3000 24° Northeast 98 113 5,000  Climbing Tampa TRACON
10:44PM 27.8333 -82.2833 41° Northeast 100 115 5,000 -60 Level Tampa TRACON
10:45PM 27.8500 -82.2667 41° Northeast 105 121 4,900 -60 Descending Tampa TRACON
10:46PM 27.8667 -82.2333 61° Northeast 98 113 4,900  Level Tampa TRACON
10:47PM 27.9000 -82.2333 360° North 87 100 4,900  Level Tampa TRACON
10:48PM 27.9167 -82.2167 41° Northeast 90 104 5,000  Climbing Tampa TRACON
10:49PM 27.9333 -82.2000 41° Northeast 92 106 5,000  Level Tampa TRACON
10:50PM 27.9667 -82.1833 24° Northeast 100 115 5,000  Level Tampa TRACON
10:51PM 27.9833 -82.1667 41° Northeast 100 115 5,000 -60 Level Tampa TRACON
10:52PM 28.0000 -82.1333 60° Northeast 106 122 4,900 -60 Descending Tampa TRACON
10:53PM 28.0333 -82.1167 24° Northeast 103 119 4,900  Level Tampa TRACON
10:55PM 28.0500 -82.1000 41° Northeast 96 110 4,900  Level Tampa TRACON
10:56PM 28.1000 -82.0667 30° Northeast 99 114 4,900  Level Orlando TRACON
10:58PM 28.1167 -82.0500 41° Northeast 103 119 5,000  Climbing Orlando TRACON
10:59PM 28.1500 -82.0167 41° Northeast 107 123 5,000  Level Orlando TRACON
10:59PM 28.1667 -82.0000 41° Northeast 107 123 5,000 -60 Level Orlando TRACON
11:00PM 28.1833 -81.9833 41° Northeast 106 122 4,900  Descending Orlando TRACON
11:01PM 28.2167 -81.9667 24° Northeast 108 124 5,000  Climbing Orlando TRACON
11:02PM 28.2333 -81.9500 41° Northeast 104 120 5,000 -60 Level Orlando TRACON
11:03PM 28.2667 -81.9333 24° Northeast 106 122 4,900 -60 Descending Orlando TRACON
11:04PM 28.2833 -81.9000 60° Northeast 107 123 4,900  Level Orlando TRACON
11:05PM 28.3000 -81.8667 60° Northeast 107 123 5,000  Climbing Orlando TRACON
11:06PM 28.3167 -81.8500 41° Northeast 107 123 5,000  Level Orlando TRACON
11:08PM 28.3167 -81.8167 90° East 109 125 5,000  Level Orlando TRACON
11:09PM 28.3333 -81.7833 60° Northeast 108 124 5,000  Level Orlando TRACON
11:09PM 28.3500 -81.7500 60° Northeast 106 122 5,000  Level Orlando TRACON
11:10PM 28.3667 -81.7333 41° Northeast 103 119 5,000  Level Orlando TRACON
11:11PM 28.4000 -81.7167 24° Northeast 104 120 5,000 -60 Level Orlando TRACON
11:13PM 28.4167 -81.7000 41° Northeast 105 121 4,900 -60 Descending Orlando TRACON
11:13PM 28.4500 -81.6833 24° Northeast 102 117 4,900  Level Orlando TRACON
11:14PM 28.4667 -81.6667 41° Northeast 101 116 4,900  Level Orlando TRACON
11:15PM 28.5000 -81.6667 360° North 97 112 5,000 60 Climbing Orlando TRACON
11:16PM 28.5167 -81.6500 41° Northeast 101 116 5,100  Climbing Orlando TRACON
11:17PM 28.5500 -81.6333 24° Northeast 105 121 5,000 -60 Descending Orlando TRACON
11:18PM 28.5667 -81.6167 41° Northeast 106 122 5,000 -60 Level Orlando TRACON
11:20PM 28.6000 -81.6000 24° Northeast 106 122 4,900 -60 Descending Orlando TRACON
11:20PM 28.6167 -81.5667 60° Northeast 103 119 4,900  Level Orlando TRACON
11:21PM 28.6333 -81.5500 41° Northeast 100 115 5,000  Climbing Orlando TRACON
11:22PM 28.6667 -81.5500 360° North 108 124 5,000  Level Orlando TRACON
11:23PM 28.7000 -81.5500 360° North 108 124 5,000  Level Orlando TRACON
11:24PM 28.7167 -81.5333 41° Northeast 107 123 5,000 -60 Level Orlando TRACON
11:25PM 28.7500 -81.5333 360° North 105 121 4,900 -240 Descending Orlando TRACON
11:26PM 28.7667 -81.5000 60° Northeast 110 127 4,600 -360 Descending Orlando TRACON
11:27PM 28.7833 -81.4833 41° Northeast 108 124 4,200 -300 Descending Orlando TRACON
11:29PM 28.8178 -81.4375 49° Northeast 107 123 3,800 -240 Descending Jacksonville Center
11:30PM 28.8300 -81.4042 67° East 110 127 3,600 -240 Descending Jacksonville Center
11:31PM 28.8464 -81.3781 54° Northeast 108 124 3,400 -240 Descending Jacksonville Center
11:32PM 28.8669 -81.3444 55° Northeast 106 122 3,100 -240 Descending Jacksonville Center
11:33PM 28.8853 -81.3181 52° Northeast 106 122 3,000  Descending Jacksonville Center
11:34PM 28.9039 -81.2989 42° Northeast 96 110 3,100  Climbing Jacksonville Center
11:35PM 28.9267 -81.2769 40° Northeast 113 130 3,000 -60 Descending Jacksonville Center
11:36PM 28.9450 -81.2506 52° Northeast 105 121 3,000 -180 Level Jacksonville Center
11:37PM 28.9611 -81.2172 61° Northeast 115 132 2,700 -300 Descending Jacksonville Center
11:38PM 28.9817 -81.1931 46° Northeast 119 137 2,400 -300 Descending Jacksonville Center
11:39PM 29.0022 -81.1642 51° Northeast 113 130 2,100 -300 Descending Jacksonville Center
11:41PM 29.0247 -81.1340 60° Northeast  Level FlightAware Approximate
11:48PM 29.0667 -81.0333 65° Northeast  Level FlightAware Approximate
11:49PM 29.0802 -81.0466 65° Northeast  Level Estimated
11:50PM 29.0802 -81.0466 65° Northeast  Level Estimated